createdAt,value
2023-01-02T00:02:08.271Z,62.78
2023-01-02T00:07:10.200Z,62.43
2023-01-02T00:12:11.832Z,62.21
2023-01-02T00:17:13.467Z,62.50
2023-01-02T00:22:15.153Z,62.42
2023-01-02T00:27:17.667Z,61.60
2023-01-02T00:32:19.432Z,61.81
2023-01-02T00:37:21.249Z,61.61
2023-01-02T00:42:22.903Z,62.24
2023-01-02T00:47:24.779Z,62.18
2023-01-02T00:52:26.391Z,62.17
2023-01-02T00:57:28.537Z,62.40
2023-01-02T01:02:31.899Z,62.73
2023-01-02T01:07:33.997Z,63.37
2023-01-02T01:28:12.224Z,63.72
2023-01-02T01:33:13.726Z,64.11
2023-01-02T01:38:15.220Z,62.47
2023-01-02T01:43:16.732Z,63.18
2023-01-02T01:48:18.353Z,63.07
2023-01-02T01:53:22.497Z,62.92
2023-01-02T01:58:28.828Z,62.35
2023-01-02T02:03:33.211Z,62.39
2023-01-02T02:08:37.549Z,63.52
2023-01-02T02:13:39.353Z,61.27
2023-01-02T02:19:18.063Z,62.19
2023-01-02T02:24:58.130Z,62.55
2023-01-02T02:30:14.374Z,61.09
2023-01-02T02:35:30.519Z,61.16
2023-01-02T02:40:59.806Z,61.97
2023-01-02T02:46:15.360Z,62.46
2023-01-02T02:51:23.950Z,62.03
2023-01-02T02:56:28.346Z,63.42
2023-01-02T03:01:31.233Z,63.03
2023-01-02T03:06:32.793Z,63.91
2023-01-02T03:11:48.143Z,64.35
2023-01-02T03:17:00.824Z,63.20
2023-01-02T03:22:17.142Z,64.29
2023-01-02T03:27:22.790Z,64.16
2023-01-02T03:32:35.389Z,64.66
2023-01-02T03:37:43.321Z,64.65
2023-01-02T03:42:55.343Z,63.54
2023-01-02T03:48:03.207Z,63.26
2023-01-02T03:53:04.706Z,63.74
2023-01-02T03:58:23.995Z,63.91
2023-01-02T04:03:34.968Z,64.49
2023-01-02T04:08:44.634Z,64.42
2023-01-02T04:13:51.895Z,63.42
2023-01-02T04:19:31.667Z,65.34
2023-01-02T04:24:38.795Z,65.89
2023-01-02T04:29:40.999Z,65.49
2023-01-02T04:34:44.896Z,65.00
2023-01-02T04:39:46.446Z,65.44
2023-01-02T04:44:47.904Z,63.67
2023-01-02T04:49:49.340Z,63.92
2023-01-02T04:54:50.848Z,63.23
2023-01-02T04:59:52.336Z,63.77
2023-01-02T05:04:53.791Z,65.09
2023-01-02T05:09:55.275Z,65.12
2023-01-02T05:14:56.764Z,64.53
2023-01-02T05:19:58.278Z,65.20
2023-01-02T05:24:59.774Z,64.13
2023-01-02T05:30:01.322Z,65.07
2023-01-02T05:35:03.188Z,64.61
2023-01-02T05:40:05.175Z,65.20
2023-01-02T05:45:07.306Z,65.00
2023-01-02T05:50:08.954Z,65.20
2023-01-02T05:55:10.409Z,66.02
2023-01-02T06:00:12.719Z,64.72
2023-01-02T06:05:17.238Z,62.81
2023-01-02T06:10:18.866Z,62.88
2023-01-02T06:15:21.036Z,63.44
2023-01-02T06:20:22.803Z,63.52
2023-01-02T06:25:24.397Z,63.63
2023-01-02T06:30:26.130Z,63.65
2023-01-02T06:35:27.726Z,63.85
2023-01-02T06:40:29.352Z,63.63
2023-01-02T06:45:30.950Z,63.35
2023-01-02T06:50:35.146Z,63.71
2023-01-02T06:55:37.061Z,62.62
2023-01-02T07:00:38.890Z,63.61
2023-01-02T07:05:40.492Z,63.36
2023-01-02T07:10:42.144Z,62.71
2023-01-02T07:15:43.879Z,62.74
2023-01-02T07:20:53.883Z,63.06
2023-01-02T07:25:57.823Z,64.38
2023-01-02T07:31:04.079Z,63.63
2023-01-02T07:36:07.956Z,64.59
2023-01-02T07:41:16.184Z,64.67
2023-01-02T07:46:19.669Z,65.67
2023-01-02T07:51:27.071Z,65.46
2023-01-02T07:56:30.098Z,64.33
2023-01-02T08:01:31.810Z,64.55
2023-01-02T08:06:33.856Z,65.30
2023-01-02T08:11:35.432Z,65.11
2023-01-02T08:16:37.199Z,64.14
2023-01-02T08:21:38.775Z,64.42
2023-01-02T08:26:40.467Z,64.34
2023-01-02T08:31:44.092Z,63.93
2023-01-02T08:36:45.890Z,63.38
2023-01-02T08:41:47.505Z,62.99
2023-01-02T08:46:49.073Z,64.22
2023-01-02T08:51:50.674Z,64.85
2023-01-02T08:56:52.414Z,64.69
2023-01-02T09:01:54.458Z,63.74
2023-01-02T09:06:56.061Z,63.72
2023-01-02T09:11:57.603Z,65.86
2023-01-02T09:16:59.337Z,64.32
2023-01-02T09:22:00.970Z,65.43
2023-01-02T09:27:02.571Z,65.59
2023-01-02T09:32:04.704Z,64.00
2023-01-02T09:37:06.180Z,64.04
2023-01-02T09:42:14.356Z,64.11
2023-01-02T09:47:23.696Z,64.05
2023-01-02T09:52:28.862Z,64.67
2023-01-02T09:57:43.319Z,63.87
2023-01-02T10:02:47.722Z,64.18
2023-01-02T10:08:11.520Z,63.93
2023-01-02T10:13:21.247Z,63.98
2023-01-02T10:18:38.247Z,64.05
2023-01-02T10:23:45.313Z,64.01
2023-01-02T10:28:46.884Z,63.82
2023-01-02T10:33:55.698Z,62.30
2023-01-02T10:39:03.688Z,63.57
2023-01-02T10:44:19.395Z,62.54
2023-01-02T10:49:23.610Z,62.30
2023-01-02T10:54:25.179Z,61.82
2023-01-02T10:59:28.861Z,61.39
2023-01-02T11:04:30.866Z,60.65
2023-01-02T11:09:34.458Z,60.95
2023-01-02T11:14:37.777Z,59.58
2023-01-02T11:19:51.470Z,58.61
2023-01-02T11:25:00.754Z,56.56
2023-01-02T11:30:05.812Z,52.52
2023-01-02T11:35:37.651Z,49.15
2023-01-02T11:40:51.930Z,50.34
2023-01-02T11:45:54.419Z,53.13
2023-01-02T11:50:56.036Z,55.60
2023-01-02T11:56:37.295Z,57.02
2023-01-02T12:01:57.554Z,60.29
2023-01-02T12:07:23.253Z,60.35
2023-01-02T12:12:40.933Z,60.22
2023-01-02T12:18:06.737Z,60.73
2023-01-02T12:23:35.226Z,60.24
2023-01-02T12:28:50.000Z,57.23
2023-01-02T12:34:29.627Z,58.22
2023-01-02T12:39:46.229Z,56.82
2023-01-02T12:44:52.328Z,49.09
2023-01-02T12:50:27.897Z,46.57
2023-01-02T12:55:51.372Z,43.76
2023-01-02T13:01:26.179Z,42.46
2023-01-02T13:06:45.405Z,41.44
2023-01-02T13:12:21.960Z,41.84
2023-01-02T13:17:44.965Z,41.31
2023-01-02T13:23:03.442Z,41.17
2023-01-02T13:28:05.071Z,41.38
2023-01-02T13:33:36.135Z,40.81
2023-01-02T13:38:37.700Z,41.73
2023-01-02T13:43:39.466Z,40.98
2023-01-02T13:48:46.061Z,41.02
2023-01-02T13:53:50.634Z,41.11
2023-01-02T13:58:57.852Z,40.40
2023-01-02T14:04:11.560Z,41.35
2023-01-02T14:09:20.105Z,41.47
2023-01-02T14:14:40.223Z,40.85
2023-01-02T14:19:42.118Z,41.66
2023-01-02T14:24:52.735Z,41.27
2023-01-02T14:29:59.740Z,40.62
2023-01-02T14:35:04.907Z,40.53
2023-01-02T14:40:34.515Z,40.89
2023-01-02T14:45:45.987Z,41.77
2023-01-02T14:50:49.203Z,41.68
2023-01-02T14:55:55.932Z,42.29
2023-01-02T15:01:04.238Z,42.87
2023-01-02T15:06:34.732Z,42.61
2023-01-02T15:11:36.328Z,42.81
2023-01-02T15:16:46.736Z,43.55
2023-01-02T15:21:48.416Z,43.51
2023-01-02T15:26:50.304Z,43.72
2023-01-02T15:31:53.199Z,43.83
2023-01-02T15:36:55.891Z,43.76
2023-01-02T15:41:58.039Z,43.81
2023-01-02T15:47:00.259Z,44.70
2023-01-02T15:52:03.555Z,44.48
2023-01-02T15:57:12.357Z,44.76
2023-01-02T16:02:35.092Z,44.86
2023-01-02T16:07:37.165Z,44.46
2023-01-02T16:12:39.469Z,45.71
2023-01-02T16:17:45.989Z,45.37
2023-01-02T16:22:59.463Z,45.75
2023-01-02T16:28:03.956Z,46.17
2023-01-02T16:33:28.385Z,46.69
2023-01-02T16:38:31.199Z,46.80
2023-01-02T16:43:38.042Z,46.33
2023-01-02T16:48:44.703Z,46.35
2023-01-02T16:53:46.526Z,46.05
2023-01-02T16:58:48.294Z,46.13
2023-01-02T17:03:49.891Z,46.25
2023-01-02T17:08:51.648Z,46.31
2023-01-02T17:13:53.162Z,46.25
2023-01-02T17:18:54.685Z,46.45
2023-01-02T17:23:56.280Z,47.19
2023-01-02T17:28:57.860Z,48.11
2023-01-02T17:34:00.970Z,47.90
2023-01-02T17:39:02.496Z,48.82
2023-01-02T17:44:04.200Z,49.22
2023-01-02T17:49:05.705Z,49.94
2023-01-02T17:54:07.239Z,49.54
2023-01-02T17:59:08.932Z,50.11
2023-01-02T18:04:10.378Z,49.77
2023-01-02T18:09:11.834Z,50.67
2023-01-02T18:14:21.944Z,51.14
2023-01-02T18:19:26.149Z,50.65
2023-01-02T18:24:30.592Z,51.31
2023-01-02T18:29:32.135Z,52.28
2023-01-02T18:34:54.715Z,52.13
2023-01-02T18:40:00.502Z,51.71
2023-01-02T18:45:12.203Z,52.39
2023-01-02T18:50:19.715Z,53.09
2023-01-02T18:55:25.902Z,54.17
2023-01-02T19:00:31.987Z,54.50
2023-01-02T19:05:37.461Z,54.40
2023-01-02T19:10:42.615Z,54.02
2023-01-02T19:15:47.192Z,53.87
2023-01-02T19:21:08.187Z,54.18
2023-01-02T19:26:33.637Z,54.15
2023-01-02T19:31:51.924Z,54.79
2023-01-02T19:37:05.041Z,55.12
2023-01-02T19:42:07.670Z,56.29
2023-01-02T19:47:09.158Z,56.73
2023-01-02T19:52:11.494Z,56.24
2023-01-02T19:57:14.030Z,56.97
2023-01-02T20:02:17.977Z,57.24
2023-01-02T20:07:20.910Z,56.78
2023-01-02T20:12:22.515Z,56.82
2023-01-02T20:17:24.035Z,56.99
2023-01-02T20:22:26.770Z,57.06
2023-01-02T20:27:28.502Z,56.55
2023-01-02T20:32:29.985Z,56.19
2023-01-02T20:37:32.408Z,56.45
2023-01-02T20:42:33.913Z,56.68
2023-01-02T20:47:35.520Z,56.57
2023-01-02T20:52:38.438Z,56.94
2023-01-02T20:57:39.986Z,57.75
2023-01-02T21:02:41.654Z,58.85
2023-01-02T21:07:43.277Z,60.11
2023-01-02T21:12:44.739Z,59.81
2023-01-02T21:17:46.300Z,60.97
2023-01-02T21:22:47.797Z,61.35
2023-01-02T21:27:49.356Z,61.51
2023-01-02T21:32:50.864Z,61.37
2023-01-02T21:37:52.799Z,61.36
2023-01-02T21:42:54.485Z,61.86
2023-01-02T21:47:55.948Z,61.59
2023-01-02T21:52:57.474Z,61.27
2023-01-02T21:58:15.100Z,62.42
2023-01-02T22:03:16.998Z,62.96
2023-01-02T22:08:18.651Z,64.45
2023-01-02T22:13:20.123Z,65.29
2023-01-02T22:18:21.742Z,65.52
2023-01-02T22:23:23.213Z,65.94
2023-01-02T22:28:24.781Z,66.96
2023-01-02T22:33:26.364Z,66.89
2023-01-02T22:38:27.983Z,67.30
2023-01-02T22:43:35.780Z,67.96
2023-01-02T22:48:38.884Z,68.27
2023-01-02T22:53:40.852Z,67.93
2023-01-02T22:58:42.993Z,68.84
2023-01-02T23:03:46.856Z,69.63
2023-01-02T23:08:48.442Z,70.75
2023-01-02T23:13:56.298Z,70.47
2023-01-02T23:18:58.259Z,70.78
2023-01-02T23:24:00.449Z,69.47
2023-01-02T23:29:07.002Z,70.71
2023-01-02T23:34:11.915Z,70.27
2023-01-02T23:39:17.977Z,68.86
2023-01-02T23:44:20.390Z,69.17
2023-01-02T23:49:22.514Z,69.65
2023-01-02T23:54:24.193Z,70.08
2023-01-02T23:59:26.233Z,69.62
